Jones Prairie, Texas
Current Conditions -  °F | °C
As of 5:15 AM on Saturday 01 Nov 2014 (Local Time) from KT35 Reporting Station
Clear Clear  
Wind Chill: 43°   Ceiling: Unl
Heat Index: 43°   Visibility: 10mi
Dew Point: 38°   Wind: 0mph
Humidity: 84%   Direction: NA
Pressure: 30.35"   Gusts: NA
Location:  30.8332°N, 96.9826°W
Report Text: KT35 011015Z AUTO 00000KT 10SM CLR 06/04 A3035 RMK AO2 T00610035
Loading
Personal Weather Stations






























Interactive Weather Map
Tropical Storm Tracking
New forecast layout! Learn more

10-Day Weather Forecast

Advertisements
Track Severe Weather on mobile